Symerton, Illinois
Current Conditions -  °F | °C
As of 4:35 PM on Thursday 23 Oct 2014 (Local Time) from KJOT Reporting Station
Broken Clouds Broken Clouds  
Wind Chill: 58°   Ceiling: 11000
Heat Index: 58°   Visibility: 10mi
Dew Point: 42°   Wind: 7mph
Humidity: 56%   Direction: 200°SSW
Pressure: 30.09"   Gusts: NA
Location:  41.3199°N, 88.0518°W
Report Text: KJOT 232135Z AUTO 20006KT 10SM BKN110 14/06 A3009 RMK AO2 T01420056
Loading
Personal Weather Stations






























Interactive Weather Map
Tropical Storm Tracking
New forecast layout! Learn more

10-Day Weather Forecast

Advertisements
Track Severe Weather on mobile